Skip to main content

NOAA/GLERL Met Station at Michigan City, IN

Previous 5 days (top of hour only)
See also Previous 3 Hours (2 minute increments)
Jump down to Data
Switch to [English][Metric]
Zoom: Click and drag, Pan: shift-click and drag, Unzoom: double-click, Unzoom All





Note: Speed = mean wind during 2-minute period at top of hour,
Gust = max wind during 2-minute period at top of hour,
Peak = max wind during entire hour.
• See also 5-day windrose plot


NOAA/GLERL Met Station at Michigan City, IN

Previous 5 days (top of hour only)
See also Previous 3 Hours (2 minute increments)
Jump up to Graphs
Switch to [English][Metric]
                  Wind  Wind  Wind   Air   Dew   Rel     Sta   PAR
                   Spd   Gst   Dir  Temp    Pt   Hum    Pres uE/m2/
YYYY-MM-DD   CST   kts   kts   deg     F     F     %   in Hg   sec
2020-01-20 00:00 -99.0 -99.0   -99   0.0   0.0   0.0    0.00     0
2020-01-19 06:00  20.6  24.5   272   8.2   4.0  82.6    0.00     0
2020-01-19 05:00  24.3  28.0   259   8.4   5.0  85.9    0.00     0
2020-01-19 04:00  25.9  32.1   258   8.6   4.9  84.8    0.00     0
2020-01-19 03:00  26.8  30.3   251   8.6   4.8  84.5    0.00     0
2020-01-19 02:00  27.4  32.1   251   9.1   5.2  83.7    0.00     0
2020-01-19 01:00  29.0  35.0   249  10.0   6.0  83.6    0.00     0
2020-01-19 00:00  30.5  36.5   253  10.6   7.1  85.6    0.00     0
2020-01-18 23:00  35.2  39.5   246  12.0   8.4  85.1    0.00     0
2020-01-18 22:00  35.0  41.2   245  14.0   9.4  81.7    0.00     0
2020-01-18 21:00  34.0  40.4   238  15.4  10.7  81.2    0.00     0
2020-01-18 20:00  37.5  43.0   244  17.2  12.3  80.8    0.00     0
2020-01-18 19:00  37.5  41.2   241  18.3  13.2  80.3    0.00     0
2020-01-18 18:00  35.2  39.3   239  20.1  15.4  81.8    0.00     0
2020-01-18 17:00  43.7  50.3   240  23.0  18.6  83.2    0.00     0
2020-01-18 16:00  34.6  40.8   242  26.8  24.0  89.3    0.00     0
2020-01-18 15:00  24.7  29.0   248  34.5  30.8  86.2    0.00     0
2020-01-18 14:00  30.5  33.2   254  35.1  30.3  82.5    0.00   160
2020-01-18 13:00  28.2  30.9   251  35.1  31.4  86.3    0.00   160
2020-01-18 12:00  28.6  31.3   251  35.8  32.1  86.3    0.00   266
2020-01-18 11:00  25.9  28.6   246  36.9  35.6  95.3    0.00   134
2020-01-18 10:00  19.2  22.0   219  39.7  38.3  94.6    0.00    82
2020-01-18 09:00  15.2  17.5   186  37.4  36.6  97.0    0.00   108
2020-01-18 08:00  13.8  18.5   169  36.1  35.2  96.4    0.00     0
2020-01-18 07:00  17.3  22.7   176  35.6  33.9  93.6    0.00     0
2020-01-18 06:00  15.7  20.8   158  34.2  32.7  94.4    0.00     0
2020-01-18 05:00   9.9  12.4   140  33.3  31.5  93.2    0.00     0
2020-01-18 04:00   6.2   9.1   144  32.5  30.6  92.6    0.00     0
2020-01-18 03:00  10.1  12.8   135  31.8  29.5  91.1    0.00     0
2020-01-18 02:00  14.4  20.0   133  30.0  27.2  89.0    0.00     0
2020-01-18 01:00  17.1  22.4   130  28.9  25.6  87.1    0.00     0
2020-01-18 00:00  15.0  17.1   138  28.4  24.7  85.9    0.00     0
2020-01-17 23:00  20.6  26.8   117  28.0  24.5  86.4    0.00     0
2020-01-17 22:00  18.1  23.5   106  27.0  24.5  90.3    0.00     0
2020-01-17 21:00  17.9  23.3   105  26.6  24.3  91.0    0.00     0
2020-01-17 20:00  13.2  16.5   124  26.4  23.4  88.3    0.00     0
2020-01-17 19:00  11.3  15.0   125  25.7  23.6  91.8    0.00     0
2020-01-17 18:00  14.2  17.9   100  25.2  23.2  92.0    0.00     0
2020-01-17 17:00  12.1  16.3   102  25.2  22.8  90.8    0.00     0
2020-01-17 16:00  10.1  11.7   110  28.2  16.3  60.5    0.00     0
2020-01-17 15:00  12.4  15.6   105  27.7  15.0  58.7    0.00    82
2020-01-17 14:00  11.9  15.4   137  27.3  14.6  58.4    0.00   165
2020-01-17 13:00  12.1  15.2   125  26.6  13.9  58.3    0.00   330
2020-01-17 12:00  10.3  12.8   109  24.8  14.1  63.4    0.00   330
2020-01-17 11:00  12.6  15.4   117  23.5  13.6  65.5    0.00   495
2020-01-17 10:00  12.8  15.6   133  22.5  13.0  66.6    0.00   330
2020-01-17 09:00   9.1  11.5   107  21.4  12.4  67.9    0.00   165
2020-01-17 08:00  10.9  14.0    97  21.0  13.3  71.7    0.00    83
2020-01-17 07:00   6.8   8.6    95  21.7  14.3  72.9    0.00     0
2020-01-17 06:00   7.0   8.9    89  22.8  15.8  74.1    0.00     0
2020-01-17 05:00   8.7  10.3    98  23.2  15.6  72.6    0.00     0
2020-01-17 04:00   8.7  10.1    86  24.3  16.7  72.7    0.00     0
2020-01-17 03:00   4.7   5.6   103  25.0  17.4  72.5    0.00     0
2020-01-17 02:00   4.5   6.2   116  25.2  17.7  73.1    0.00     0
2020-01-17 01:00   6.4   8.2    66  25.0  18.0  74.4    0.00     0
2020-01-17 00:00   8.2   9.5    35  24.6  17.4  73.6    0.00     0
2020-01-16 23:00  11.5  13.6   355  24.3  16.9  73.4    0.00     0
2020-01-16 22:00  11.1  13.2    27  24.1  17.4  75.4    0.00     0
2020-01-16 21:00  14.4  18.7    19  23.9  17.3  75.8    0.00     0
2020-01-16 20:00  18.1  21.0    10  23.9  16.9  74.4    0.00     0
2020-01-16 19:00  17.3  19.2   338  23.4  16.1  73.5    0.00     0
2020-01-16 18:00  18.1  20.2   346  23.5  16.3  73.5    0.00     0
2020-01-16 17:00  13.4  15.6   334  22.8  14.2  69.1    0.00     0
2020-01-16 16:00  15.4  18.1   328  22.6  14.5  70.6    0.00    82
2020-01-16 15:00  15.7  18.5   325  22.6  14.6  71.0    0.00   175
2020-01-16 14:00  19.4  22.4   327  22.5  14.1  70.0    0.00   393
2020-01-16 13:00  17.3  21.0   319  21.9  13.1  68.4    0.00   445
2020-01-16 12:00  19.8  23.3   321  22.1  13.5  69.3    0.00   517
2020-01-16 11:00  20.4  22.6   301  22.5  13.4  68.0    0.00   690
2020-01-16 10:00  22.9  27.4   294  21.7  14.7  74.0    0.00   536
2020-01-16 09:00  19.2  21.6   283  23.0  16.9  77.2    0.00   165
2020-01-16 08:00  22.0  24.5   279  24.6  18.3  76.7    0.00     0
2020-01-16 07:00  19.8  22.2   279  26.6  19.0  72.8    0.00     0
2020-01-16 06:00  20.0  22.7   281  28.0  20.6  73.4    0.00     0
2020-01-16 05:00  19.8  22.0   282  29.3  22.5  75.4    0.00     0
2020-01-16 04:00  21.0  24.5   281  29.8  22.7  74.4    0.00     0
2020-01-16 03:00  18.7  21.2   283  30.4  24.5  78.4    0.00     0
2020-01-16 02:00  21.2  23.3   288  31.1  25.0  77.8    0.00     0
2020-01-16 01:00  21.8  24.1   301  33.1  27.2  78.7    0.00     0
2020-01-16 00:00  22.4  24.5   290  33.8  27.8  78.5    0.00     0
2020-01-15 23:00  20.4  25.5   298  34.5  30.3  84.2    0.00     0
2020-01-15 22:00  21.6  23.7   298  35.1  32.5  90.3    0.00     0
2020-01-15 21:00  16.9  18.7   281  36.3  34.3  92.3    0.00     0
2020-01-15 20:00  15.4  16.5   289  36.3  34.6  93.4    0.00     0
2020-01-15 19:00  13.4  13.8   271  36.0  34.9  95.8    0.00     0
2020-01-15 18:00  19.1  22.0   287  35.6  35.4  99.2    0.00     0
2020-01-15 17:00   8.6  10.7   264  35.4  35.2  99.2    0.00     0
2020-01-15 16:00  10.3  10.9   269  35.4  35.2  99.2    0.00     0
2020-01-15 15:00   5.6   6.2   273  35.1  34.8  98.9    0.00     0
2020-01-15 14:00   1.4   1.7    16  35.1  34.7  98.5    0.00    82
2020-01-15 13:00   4.9   5.4   343  35.2  34.5  96.9    0.00    84
2020-01-15 12:00   3.1   3.9   237  36.3  35.0  94.7    0.00    50
2020-01-15 11:00   8.4  10.3   118  35.1  33.7  94.6    0.00   165
2020-01-15 10:00   6.0   7.8    85  34.0  33.0  96.0    0.00   165
2020-01-15 09:00   5.8   7.2    92  33.3  32.4  96.5    0.00   118
2020-01-15 08:00   3.9   4.9    99  32.7  32.1  97.6    0.00     0
2020-01-15 07:00   5.4   6.6    89  32.4  32.0  98.5    0.00     0
2020-01-15 06:00   4.7   5.2    85  31.6  31.3  98.6    0.00     0
2020-01-15 05:00   6.2   7.0    62  30.7  30.3  98.3    0.00     0
2020-01-15 04:00   4.7   5.6   133  29.5  28.9  97.7    0.00     0
2020-01-15 03:00   5.1   5.6   127  30.6  29.5  95.7    0.00     0
2020-01-15 02:00   5.1   5.8   124  31.1  29.8  94.9    0.00     0
2020-01-15 01:00   7.0   7.6    36  34.9  31.6  87.6    0.00     0
2020-01-15 00:00   8.2   8.6    10  34.9  32.1  89.4    0.00     0
2020-01-14 23:00   5.4   5.8   329  35.1  32.5  90.3    0.00     0
2020-01-14 22:00   6.8   7.0   300  35.6  32.9  89.6    0.00     0
2020-01-14 21:00   4.1   4.9   277  36.0  34.4  93.9    0.00     0
2020-01-14 20:00   9.7  10.1   265  37.4  33.9  87.1    0.00     0
2020-01-14 19:00   5.2   6.0   228  37.4  34.7  89.9    0.00     0
2020-01-14 18:00  11.5  12.2   260  39.2  34.5  82.9    0.00     0